A- A+ FrançaisEnglishEspañol中国

最近的 LHBP BudapestMMTJ TijuanaSKVP ValleduparZSQD QingdaoTFFR Le RaizetYBCG Coolangatta

飞行员的航空天气,使用METAR(气象机场报告)进行的飞行准备和TAF(终端机场预报:针对以下情况的短期天气预报)航空)。 以及其他资源,例如VAC(目视进近图)和NOTAM(通知飞行员)以进行预试飞行.

METAR, TAF, VAC, NOTAM Popayan机场 (Colombie) / OACI SKPP/ IATA PPN

它位于附近 Popayán, Popayan 在 1.8 km, Cajibio 在 19 km, Lopez 在 21 km, Paispamba 在 22 km, El Tambo 在 22 km, Totoro 在 24 km, Rosas 在 26 km, Villa Rica 在 27 km, Silvia 在 31 km, Morales 在 34 km,

机场的高度为 Popayan机场的

1733 m = 5686 ft

跑道 Popayan机场的

附近的机场Popayan机场的

目前的天气 Popayan机场的 - SKPP

nuages fragmentés
19°C

Vent 0 km/h

可提供5天天气预报 Popayan 在 1.8 km, Cajibio 在 19 km, Lopez 在 21 km, Paispamba 在 22 km, El Tambo 在 22 km, Totoro 在 24 km, Rosas 在 26 km, Villa Rica 在 27 km, Silvia 在 31 km, Morales 在 34 km,

METAR Popayan机场的 - SKPP

SKPP 181400Z 00000KT 9999 SCT010 19/15 A3021

Popayan机场METAR解码 (Colombie)

SKPP机场发行的METAR日期2020年09月18日至14:00 GMT, 警告:此METAR已过期, 已于 2 天 13 小时 57 分钟.

可见度为大于 10 km = 大于6.2 sm.

温度为19°C = 66 °F 露点为15°C = 59 °F 。 这相当于78%的相对湿度。.

QNH是1023 hPa = 30.21 inHg

的风0 kt = 0 km/h, 风向为0°.

云:距离1000 ft = 300 m.

TAF Popayan机场的 - SKPP

没有TAF

Popayan机场的NOTAM

提供的NOTAM不能保证其时事性。 在将其用于飞行准备或在飞行期间使用之前,飞行员是唯一负责验证其有效性的人员。

没有通知

数据源